createdAt,value
2019-05-28T00:03:57.682Z,99126.15
2019-05-28T00:09:01.748Z,99114.94
2019-05-28T00:14:05.946Z,99109.25
2019-05-28T00:19:10.004Z,99104.67
2019-05-28T00:24:14.090Z,99103.56
2019-05-28T00:29:18.098Z,99098.48
2019-05-28T00:34:22.128Z,99098.48
2019-05-28T00:39:26.223Z,99086.61
2019-05-28T00:44:30.406Z,99084.91
2019-05-28T00:49:34.517Z,99090.22
2019-05-28T00:54:38.660Z,99084.60
2019-05-28T00:59:43.938Z,99082.56
2019-05-28T01:04:47.980Z,99083.34
2019-05-28T01:09:51.978Z,99073.20
2019-05-28T01:14:56.051Z,99067.08
2019-05-28T01:20:00.079Z,99067.08
2019-05-28T01:25:04.853Z,99062.69
2019-05-28T01:30:09.422Z,99051.91
2019-05-28T01:35:13.709Z,99051.91
2019-05-28T01:40:17.988Z,99058.88
2019-05-28T01:45:22.465Z,99058.88
2019-05-28T01:50:26.542Z,99047.39
2019-05-28T01:55:30.546Z,99033.27
2019-05-28T02:00:34.713Z,99048.87
2019-05-28T02:05:38.721Z,99044.97
2019-05-28T02:10:42.733Z,99023.06
2019-05-28T02:15:46.835Z,99033.11
2019-05-28T02:20:51.036Z,99033.61
2019-05-28T02:25:55.042Z,99016.75
2019-05-28T02:30:59.159Z,99024.98
2019-05-28T02:36:03.253Z,99024.98
2019-05-28T02:41:07.409Z,99013.52
2019-05-28T02:46:11.494Z,99024.44
2019-05-28T02:51:16.872Z,99026.63
2019-05-28T02:56:24.009Z,99043.11
2019-05-28T03:01:42.999Z,99043.11
2019-05-28T03:06:36.878Z,99048.29
2019-05-28T03:11:40.880Z,99048.29
2019-05-28T03:16:46.942Z,99032.11
2019-05-28T03:21:51.885Z,99051.30
2019-05-28T03:26:56.024Z,99033.27
2019-05-28T03:32:07.892Z,99048.87
2019-05-28T03:37:06.319Z,99042.88
2019-05-28T03:42:10.393Z,99050.57
2019-05-28T03:47:14.414Z,99043.63
2019-05-28T03:52:18.450Z,99041.09
2019-05-28T03:57:22.476Z,99041.09
2019-05-28T04:02:26.510Z,99046.11
2019-05-28T04:07:30.528Z,99045.61
2019-05-28T04:12:34.569Z,99057.21
2019-05-28T04:17:38.626Z,99057.21
2019-05-28T04:22:42.700Z,99071.83
2019-05-28T04:27:46.728Z,99058.34
2019-05-28T04:32:50.755Z,99072.95
2019-05-28T04:37:54.867Z,99070.75
2019-05-28T04:42:58.868Z,99071.75
2019-05-28T04:48:02.950Z,99071.75
2019-05-28T04:53:06.971Z,99077.27
2019-05-28T04:58:11.078Z,99080.97
2019-05-28T05:03:15.279Z,99062.47
2019-05-28T05:08:19.349Z,99079.42
2019-05-28T05:13:23.446Z,99076.73
2019-05-28T05:18:27.649Z,99079.42
2019-05-28T05:23:31.659Z,99079.42
2019-05-28T05:28:35.815Z,99074.03
2019-05-28T05:33:39.992Z,99092.19
2019-05-28T05:38:44.047Z,99101.13
2019-05-28T05:43:48.047Z,99110.22
2019-05-28T05:48:52.043Z,99113.41
2019-05-28T05:53:56.153Z,99110.37
2019-05-28T05:59:00.157Z,99110.37
2019-05-28T06:04:04.317Z,99103.63
2019-05-28T06:09:08.607Z,99087.09
2019-05-28T06:14:12.605Z,99087.09
2019-05-28T06:19:16.828Z,99091.14
2019-05-28T06:24:20.957Z,99091.14
2019-05-28T06:29:25.070Z,99098.88
2019-05-28T06:34:29.078Z,99103.89
2019-05-28T06:39:33.088Z,99102.92
2019-05-28T06:44:37.095Z,99103.42
2019-05-28T06:49:41.098Z,99099.38
2019-05-28T06:54:45.107Z,99116.91
2019-05-28T06:59:49.190Z,99110.25
2019-05-28T07:04:53.288Z,99133.36
2019-05-28T07:09:57.455Z,99133.41
2019-05-28T07:15:01.974Z,99140.76
2019-05-28T07:20:08.210Z,99140.76
2019-05-28T07:25:13.791Z,99142.47
2019-05-28T07:30:18.089Z,99136.89
2019-05-28T07:35:22.183Z,99130.13
2019-05-28T07:40:31.495Z,99118.34
2019-05-28T07:45:31.918Z,99118.34
2019-05-28T07:50:35.941Z,99129.03
2019-05-28T07:55:40.146Z,99141.36
2019-05-28T08:00:44.738Z,99139.96
2019-05-28T08:05:48.835Z,99139.96
2019-05-28T08:10:52.932Z,99126.73
2019-05-28T08:16:14.751Z,99126.73
2019-05-28T08:21:03.117Z,99141.53
2019-05-28T08:26:07.303Z,99145.28
2019-05-28T08:31:16.373Z,99147.23
2019-05-28T08:36:17.344Z,99147.23
2019-05-28T08:41:21.561Z,99152.20
2019-05-28T08:46:25.701Z,99152.20
2019-05-28T08:51:29.827Z,99149.60
2019-05-28T08:56:34.044Z,99153.23
2019-05-28T09:01:38.088Z,99133.55
2019-05-28T09:06:42.330Z,99133.55
2019-05-28T09:11:46.469Z,99151.45
2019-05-28T09:16:50.617Z,99160.66
2019-05-28T09:21:54.862Z,99160.66
2019-05-28T09:27:00.757Z,99157.85
2019-05-28T09:32:04.983Z,99152.11
2019-05-28T09:37:09.136Z,99161.16
2019-05-28T09:42:13.276Z,99161.16
2019-05-28T09:47:17.496Z,99166.51
2019-05-28T09:52:21.675Z,99155.41
2019-05-28T09:57:25.989Z,99171.29
2019-05-28T10:02:30.347Z,99170.80
2019-05-28T10:07:34.612Z,99161.20
2019-05-28T10:12:38.808Z,99161.20
2019-05-28T10:17:42.947Z,99172.59
2019-05-28T10:22:47.207Z,99170.97
2019-05-28T10:28:00.824Z,99188.42
2019-05-28T10:32:57.672Z,99188.42
2019-05-28T10:38:01.985Z,99199.16
2019-05-28T10:43:06.482Z,99180.14
2019-05-28T10:48:10.644Z,99199.44
2019-05-28T10:53:14.754Z,99190.01
2019-05-28T10:58:19.133Z,99173.16
2019-05-28T11:03:23.347Z,99173.16
2019-05-28T11:08:27.613Z,99184.41
2019-05-28T11:13:31.944Z,99191.01
2019-05-28T11:18:36.352Z,99191.01
2019-05-28T11:23:40.627Z,99173.93
2019-05-28T11:28:44.646Z,99158.73
2019-05-28T11:33:49.041Z,99173.62
2019-05-28T11:38:53.219Z,99178.16
2019-05-28T11:43:57.438Z,99178.16
2019-05-28T11:49:01.507Z,99177.45
2019-05-28T11:54:05.698Z,99183.38
2019-05-28T11:59:09.767Z,99182.89
2019-05-28T12:04:14.002Z,99182.20
2019-05-28T12:09:18.293Z,99182.70
2019-05-28T12:14:22.637Z,99181.22
2019-05-28T12:19:28.266Z,99176.13
2019-05-28T12:24:32.415Z,99183.19
2019-05-28T12:29:50.953Z,99186.56
2019-05-28T12:34:42.331Z,99183.86
2019-05-28T12:39:46.543Z,99181.23
2019-05-28T12:45:08.413Z,99164.62
2019-05-28T12:50:14.485Z,99181.64
2019-05-28T12:55:02.215Z,99181.64
2019-05-28T13:00:07.534Z,99171.30
2019-05-28T13:05:13.044Z,99184.14
2019-05-28T13:10:18.286Z,99184.14
2019-05-28T13:15:22.658Z,99188.94
2019-05-28T13:20:26.932Z,99186.69
2019-05-28T13:25:30.931Z,99189.02
2019-05-28T13:30:34.940Z,99197.42
2019-05-28T13:35:38.972Z,99202.16
2019-05-28T13:40:42.989Z,99196.57
2019-05-28T13:45:46.996Z,99187.83
2019-05-28T13:50:51.025Z,99187.83
2019-05-28T13:55:55.053Z,99201.20
2019-05-28T14:00:59.078Z,99201.20
2019-05-28T14:06:03.091Z,99211.91
2019-05-28T14:11:07.177Z,99198.70
2019-05-28T14:16:11.218Z,99198.70
2019-05-28T14:21:15.350Z,99216.31
2019-05-28T14:26:19.610Z,99226.88
2019-05-28T14:31:23.799Z,99216.29
2019-05-28T14:36:27.881Z,99215.88
2019-05-28T14:41:31.880Z,99222.06
2019-05-28T14:46:35.967Z,99230.67
2019-05-28T14:51:40.070Z,99225.98
2019-05-28T14:56:44.078Z,99219.89
2019-05-28T15:01:52.916Z,99219.89
2019-05-28T15:06:57.434Z,99239.70
2019-05-28T15:12:03.761Z,99231.47
2019-05-28T15:17:07.491Z,99249.88
2019-05-28T15:22:11.598Z,99256.64
2019-05-28T15:27:15.765Z,99259.75
2019-05-28T15:32:19.920Z,99261.56
2019-05-28T15:37:23.946Z,99268.05
2019-05-28T15:42:28.070Z,99268.66
2019-05-28T15:47:32.226Z,99274.61
2019-05-28T15:52:36.325Z,99274.26
2019-05-28T15:57:40.439Z,99279.67
2019-05-28T16:02:44.753Z,99279.67
2019-05-28T16:07:48.861Z,99284.48
2019-05-28T16:12:52.877Z,99290.91
2019-05-28T16:17:56.977Z,99287.63
2019-05-28T16:23:01.025Z,99289.82
2019-05-28T16:28:05.035Z,99295.72
2019-05-28T16:33:09.225Z,99285.92
2019-05-28T16:38:13.375Z,99285.92
2019-05-28T16:43:17.490Z,99308.01
2019-05-28T16:48:21.658Z,99310.50
2019-05-28T16:53:25.672Z,99310.50
2019-05-28T16:58:29.709Z,99322.18
2019-05-28T17:03:33.770Z,99312.56
2019-05-28T17:08:37.927Z,99327.40
2019-05-28T17:13:47.787Z,99337.91
2019-05-28T17:18:47.704Z,99326.94
2019-05-28T17:23:51.717Z,99350.80
2019-05-28T17:28:55.920Z,99349.81
2019-05-28T17:33:59.945Z,99349.81
2019-05-28T17:39:05.609Z,99361.84
2019-05-28T17:44:09.713Z,99368.17
2019-05-28T17:49:13.799Z,99380.02
2019-05-28T17:54:17.845Z,99383.37
2019-05-28T17:59:21.970Z,99394.02
2019-05-28T18:04:26.062Z,99395.75
2019-05-28T18:09:30.099Z,99395.75
2019-05-28T18:14:34.121Z,99399.21
2019-05-28T18:19:38.136Z,99422.80
2019-05-28T18:24:42.147Z,99422.80
2019-05-28T18:29:46.174Z,99431.89
2019-05-28T18:34:50.235Z,99446.98
2019-05-28T18:39:54.245Z,99474.23
2019-05-28T18:44:58.266Z,99476.17
2019-05-28T18:50:03.839Z,99493.48
2019-05-28T18:55:08.393Z,99493.48
2019-05-28T19:00:13.057Z,99510.18
2019-05-28T19:05:17.921Z,99516.58
2019-05-28T19:10:22.114Z,99516.58
2019-05-28T19:15:26.270Z,99526.02
2019-05-28T19:20:30.345Z,99528.93
2019-05-28T19:25:34.508Z,99539.88
2019-05-28T19:30:38.647Z,99536.52
2019-05-28T19:35:46.272Z,99554.77
2019-05-28T19:40:50.429Z,99561.06
2019-05-28T19:45:54.428Z,99561.06
2019-05-28T19:50:58.530Z,99576.13
2019-05-28T19:56:02.778Z,99576.13
2019-05-28T20:01:07.106Z,99586.53
2019-05-28T20:06:11.216Z,99592.73
2019-05-28T20:11:15.337Z,99595.53
2019-05-28T20:16:19.597Z,99590.22
2019-05-28T20:21:23.670Z,99608.98
2019-05-28T20:26:27.743Z,99617.08
2019-05-28T20:31:31.770Z,99617.08
2019-05-28T20:36:35.863Z,99626.17
2019-05-28T20:41:39.943Z,99646.28
2019-05-28T20:46:44.053Z,99646.28
2019-05-28T20:51:48.088Z,99655.63
2019-05-28T20:56:53.553Z,99655.63
2019-05-28T21:01:58.126Z,99648.06
2019-05-28T21:07:02.207Z,99669.48
2019-05-28T21:12:06.314Z,99679.28
2019-05-28T21:17:10.396Z,99679.28
2019-05-28T21:22:26.076Z,99688.24
2019-05-28T21:27:20.938Z,99695.48
2019-05-28T21:32:24.940Z,99708.00
2019-05-28T21:37:28.990Z,99698.01
2019-05-28T21:42:32.995Z,99719.79
2019-05-28T21:47:37.100Z,99721.14
2019-05-28T21:52:41.134Z,99726.90
2019-05-28T21:57:45.148Z,99726.90
2019-05-28T22:02:49.326Z,99734.64
2019-05-28T22:07:53.415Z,99734.64
2019-05-28T22:12:57.784Z,99754.40
2019-05-28T22:18:02.229Z,99761.01
2019-05-28T22:23:06.376Z,99766.41
2019-05-28T22:28:10.452Z,99746.61
2019-05-28T22:33:14.629Z,99746.61
2019-05-28T22:38:18.631Z,99775.00
2019-05-28T22:43:31.099Z,99784.10
2019-05-28T22:48:28.615Z,99784.10
2019-05-28T22:53:32.662Z,99788.51
2019-05-28T22:58:36.708Z,99794.19
2019-05-28T23:03:40.693Z,99803.28
2019-05-28T23:08:44.708Z,99804.63
2019-05-28T23:13:48.796Z,99810.27
2019-05-28T23:18:52.821Z,99815.67
2019-05-28T23:23:56.915Z,99814.46
2019-05-28T23:29:01.622Z,99814.46
2019-05-28T23:34:06.321Z,99827.71
2019-05-28T23:39:11.141Z,99830.19
2019-05-28T23:44:15.262Z,99839.28
2019-05-28T23:49:19.300Z,99838.47
2019-05-28T23:54:23.357Z,99855.99
2019-05-28T23:59:27.470Z,99861.39
